Time;durP1;ratioP1;P1;durP2;ratioP2;P2;SDS_P1;SDS_P2;PMS_P1;PMS_P2;Temp;Humidity;BMP_temperature;BMP_pressure;BME280_temperature;BME280_humidity;BME280_pressure;Samples;Min_cycle;Max_cycle;Signal;HPM_P1;HPM_P2
2023/05/30 00:01:22;;;;;;;9.70;1.65;;;;;;;;;;6308507;22;20499;-83
2023/05/30 00:03:49;;;;;;;14.18;1.67;;;;;;;;;;6282301;22;20026;-82
2023/05/30 00:06:16;;;;;;;12.85;3.22;;;;;;;;;;6308441;22;20015;-83
2023/05/30 00:08:43;;;;;;;12.25;2.05;;;;;;;;;;6308068;22;20093;-82
2023/05/30 00:11:13;;;;;;;13.02;2.30;;;;;;;;;;6307952;22;20504;-83
2023/05/30 00:13:39;;;;;;;13.45;1.92;;;;;;;;;;6309047;22;20468;-82
2023/05/30 00:16:07;;;;;;;8.90;2.10;;;;;;;;;;6282610;22;20019;-82
2023/05/30 00:18:37;;;;;;;11.70;1.90;;;;;;;;;;6283211;22;20311;-83
2023/05/30 00:21:03;;;;;;;9.38;1.92;;;;;;;;;;6307845;22;20011;-83
2023/05/30 00:23:31;;;;;;;9.68;1.90;;;;;;;;;;6283161;22;20015;-83
2023/05/30 00:25:57;;;;;;;7.43;1.85;;;;;;;;;;6282169;22;20029;-83
2023/05/30 00:28:24;;;;;;;14.63;2.03;;;;;;;;;;6282406;22;20346;-83
2023/05/30 00:30:50;;;;;;;11.50;2.20;;;;;;;;;;6282018;22;20341;-83
2023/05/30 00:33:16;;;;;;;13.63;1.92;;;;;;;;;;6282117;22;20088;-82
2023/05/30 00:35:42;;;;;;;8.30;2.13;;;;;;;;;;6308817;22;20011;-82
2023/05/30 00:38:08;;;;;;;16.27;3.05;;;;;;;;;;6282167;22;20140;-83
2023/05/30 00:40:35;;;;;;;11.93;2.25;;;;;;;;;;6308634;22;20012;-83
2023/05/30 00:43:01;;;;;;;9.40;2.03;;;;;;;;;;6281776;22;20110;-82
2023/05/30 00:45:27;;;;;;;11.98;2.40;;;;;;;;;;6281901;22;20065;-82
2023/05/30 00:47:53;;;;;;;10.25;2.10;;;;;;;;;;6281952;22;20023;-83
2023/05/30 00:50:20;;;;;;;13.88;1.90;;;;;;;;;;6308716;22;20054;-82
2023/05/30 00:52:49;;;;;;;16.33;2.67;;;;;;;;;;6282555;22;20038;-82
2023/05/30 00:55:19;;;;;;;10.35;2.08;;;;;;;;;;6281930;22;20333;-82
2023/05/30 00:57:46;;;;;;;8.60;2.45;;;;;;;;;;6307606;22;20018;-82
2023/05/30 01:00:13;;;;;;;10.93;2.50;;;;;;;;;;6308487;22;20019;-82
2023/05/30 01:02:39;;;;;;;10.60;2.72;;;;;;;;;;6282679;22;20425;-82
2023/05/30 01:05:06;;;;;;;10.25;2.00;;;;;;;;;;6281750;22;20052;-83
2023/05/30 01:07:33;;;;;;;7.57;2.20;;;;;;;;;;6281668;22;20449;-83
2023/05/30 01:09:59;;;;;;;9.00;2.55;;;;;;;;;;6307876;22;20011;-82
2023/05/30 01:12:28;;;;;;;12.88;2.40;;;;;;;;;;6307024;22;20030;-83
2023/05/30 01:15:10;;;;;;;7.15;2.20;;;;;;;;;;6308075;22;20019;-82
2023/05/30 01:17:51;;;;;;;9.70;2.20;;;;;;;;;;6306998;22;20027;-82
2023/05/30 01:20:18;;;;;;;9.70;2.47;;;;;;;;;;6307393;22;20448;-82
2023/05/30 01:23:04;;;;;;;8.77;2.15;;;;;;;;;;6307427;22;20372;-83
2023/05/30 01:25:40;;;;;;;9.75;2.53;;;;;;;;;;6308197;22;20055;-83
2023/05/30 01:28:12;;;;;;;10.63;2.28;;;;;;;;;;6308524;22;20019;-83
2023/05/30 01:30:41;;;;;;;13.88;2.42;;;;;;;;;;6282595;22;20030;-82
2023/05/30 01:33:08;;;;;;;9.23;2.80;;;;;;;;;;6307624;22;20379;-82
2023/05/30 01:35:34;;;;;;;12.05;2.65;;;;;;;;;;6282500;22;20050;-82
2023/05/30 01:38:00;;;;;;;9.25;2.20;;;;;;;;;;6307647;22;20076;-83
2023/05/30 01:40:28;;;;;;;11.25;2.38;;;;;;;;;;6307119;22;20022;-83
2023/05/30 01:43:13;;;;;;;8.98;2.00;;;;;;;;;;6308290;22;20078;-82
2023/05/30 01:45:57;;;;;;;11.07;2.70;;;;;;;;;;6281764;22;20049;-82
2023/05/30 01:48:33;;;;;;;10.98;2.65;;;;;;;;;;6308207;22;20361;-82
2023/05/30 01:51:00;;;;;;;9.40;2.83;;;;;;;;;;6281384;22;20069;-82
2023/05/30 01:53:28;;;;;;;8.90;2.63;;;;;;;;;;6281570;22;20022;-83
2023/05/30 01:55:55;;;;;;;10.38;2.95;;;;;;;;;;6281581;22;20022;-82
2023/05/30 01:58:23;;;;;;;8.13;2.65;;;;;;;;;;6281392;22;20019;-82
2023/05/30 02:00:49;;;;;;;9.85;2.50;;;;;;;;;;6306932;22;20068;-82
2023/05/30 02:03:16;;;;;;;8.82;3.08;;;;;;;;;;6281445;22;20333;-82
2023/05/30 02:05:42;;;;;;;8.32;2.40;;;;;;;;;;6281619;22;20341;-82
2023/05/30 02:08:08;;;;;;;6.88;2.60;;;;;;;;;;6307000;22;20084;-83
2023/05/30 02:10:34;;;;;;;16.00;2.80;;;;;;;;;;6281221;22;20019;-83
2023/05/30 02:13:00;;;;;;;6.78;1.80;;;;;;;;;;6281585;22;20048;-82
2023/05/30 02:15:26;;;;;;;7.28;2.70;;;;;;;;;;6306566;22;20016;-82
2023/05/30 02:17:53;;;;;;;12.02;2.40;;;;;;;;;;6225343;22;20020;-82
2023/05/30 02:20:19;;;;;;;10.05;2.75;;;;;;;;;;6276803;22;20094;-83
2023/05/30 02:22:46;;;;;;;9.45;2.20;;;;;;;;;;6250372;22;20016;-83
2023/05/30 02:25:12;;;;;;;12.25;2.33;;;;;;;;;;6250495;22;20018;-82
2023/05/30 02:27:38;;;;;;;11.40;3.00;;;;;;;;;;6250698;22;20023;-82
2023/05/30 02:30:04;;;;;;;9.15;3.00;;;;;;;;;;6224991;22;20015;-83
2023/05/30 02:32:30;;;;;;;8.88;1.85;;;;;;;;;;6250175;22;20023;-83
2023/05/30 02:34:56;;;;;;;7.50;2.05;;;;;;;;;;6225398;22;20018;-83
2023/05/30 02:37:22;;;;;;;6.35;2.20;;;;;;;;;;6225333;22;20437;-82
2023/05/30 02:39:48;;;;;;;8.60;2.38;;;;;;;;;;6276023;22;20386;-82
2023/05/30 02:42:14;;;;;;;10.68;2.30;;;;;;;;;;6250125;22;20018;-83
2023/05/30 02:44:40;;;;;;;9.48;2.83;;;;;;;;;;6275782;22;20026;-83
2023/05/30 02:47:07;;;;;;;8.70;1.85;;;;;;;;;;6275708;22;20073;-83
2023/05/30 02:49:33;;;;;;;7.25;2.75;;;;;;;;;;6224944;22;20365;-82
2023/05/30 02:51:59;;;;;;;7.97;2.60;;;;;;;;;;6250174;22;20379;-83
2023/05/30 02:54:25;;;;;;;8.93;2.75;;;;;;;;;;6225196;22;20445;-83
2023/05/30 02:56:51;;;;;;;6.53;2.10;;;;;;;;;;6276005;22;20027;-83
2023/05/30 02:59:17;;;;;;;10.40;2.47;;;;;;;;;;6224777;22;20094;-82
2023/05/30 03:01:43;;;;;;;8.52;2.67;;;;;;;;;;6224579;22;20015;-82
2023/05/30 03:04:10;;;;;;;7.88;1.90;;;;;;;;;;6250094;22;20439;-83
2023/05/30 03:06:37;;;;;;;8.27;2.63;;;;;;;;;;6250082;22;20011;-83
2023/05/30 03:09:03;;;;;;;9.73;3.28;;;;;;;;;;6276609;22;20089;-83
2023/05/30 03:11:30;;;;;;;8.18;2.13;;;;;;;;;;6249978;22;20058;-83
2023/05/30 03:13:56;;;;;;;7.68;2.35;;;;;;;;;;6224737;22;20027;-83
2023/05/30 03:16:22;;;;;;;9.07;3.40;;;;;;;;;;6286822;22;20034;-83
2023/05/30 03:18:49;;;;;;;6.22;2.10;;;;;;;;;;6280625;22;20052;-82
2023/05/30 03:21:16;;;;;;;8.88;2.50;;;;;;;;;;6280558;22;20048;-83
2023/05/30 03:23:42;;;;;;;9.57;2.30;;;;;;;;;;6307373;22;20019;-83
2023/05/30 03:26:08;;;;;;;8.48;2.90;;;;;;;;;;6281700;22;20058;-83
2023/05/30 03:28:34;;;;;;;9.40;2.72;;;;;;;;;;6306658;22;20015;-83
2023/05/30 03:31:00;;;;;;;11.73;3.50;;;;;;;;;;6305991;22;20019;-83
2023/05/30 03:33:28;;;;;;;7.03;2.15;;;;;;;;;;6306401;22;20468;-83
2023/05/30 03:35:54;;;;;;;8.27;2.17;;;;;;;;;;6281005;22;20023;-82
2023/05/30 03:38:21;;;;;;;9.52;2.50;;;;;;;;;;6280908;22;20026;-83
2023/05/30 03:40:47;;;;;;;12.15;3.05;;;;;;;;;;6306215;22;20015;-83
2023/05/30 03:43:13;;;;;;;8.93;3.20;;;;;;;;;;6280495;22;20022;-83
2023/05/30 03:45:40;;;;;;;10.63;2.85;;;;;;;;;;6305936;22;20016;-83
2023/05/30 03:48:06;;;;;;;11.15;2.58;;;;;;;;;;6281529;22;20416;-83
2023/05/30 03:50:32;;;;;;;10.52;2.28;;;;;;;;;;6279904;22;20094;-83
2023/05/30 03:52:58;;;;;;;6.90;2.22;;;;;;;;;;6280469;22;20457;-83
2023/05/30 03:55:24;;;;;;;7.38;2.45;;;;;;;;;;6306553;22;20504;-83
2023/05/30 03:57:50;;;;;;;7.43;2.30;;;;;;;;;;6281683;22;20404;-83
2023/05/30 04:00:16;;;;;;;7.47;2.55;;;;;;;;;;6280833;22;20050;-82
2023/05/30 04:02:42;;;;;;;5.60;1.27;;;;;;;;;;6280247;22;20011;-82
2023/05/30 04:05:09;;;;;;;7.93;2.88;;;;;;;;;;6306585;22;20053;-83
2023/05/30 04:07:38;;;;;;;8.80;3.08;;;;;;;;;;6306024;22;20011;-83
2023/05/30 04:10:04;;;;;;;9.45;2.25;;;;;;;;;;6281258;22;20015;-83
2023/05/30 04:12:30;;;;;;;6.43;2.17;;;;;;;;;;6280012;22;20022;-83
2023/05/30 04:14:56;;;;;;;9.20;2.75;;;;;;;;;;6307150;22;20436;-82
2023/05/30 04:17:22;;;;;;;10.27;3.80;;;;;;;;;;6281280;22;20433;-83
2023/05/30 04:19:48;;;;;;;9.32;2.53;;;;;;;;;;6281904;22;20022;-83
2023/05/30 04:22:14;;;;;;;6.90;2.42;;;;;;;;;;6308126;22;20090;-83
2023/05/30 04:24:40;;;;;;;10.27;2.65;;;;;;;;;;6282373;22;20015;-83
2023/05/30 04:27:07;;;;;;;11.82;2.70;;;;;;;;;;6309031;22;20011;-83
2023/05/30 04:29:33;;;;;;;11.07;2.60;;;;;;;;;;6309128;22;20064;-82
2023/05/30 04:31:59;;;;;;;8.20;2.22;;;;;;;;;;6308117;22;20022;-82
2023/05/30 04:34:25;;;;;;;9.57;2.47;;;;;;;;;;6282289;22;20019;-82
2023/05/30 04:36:56;;;;;;;7.15;2.20;;;;;;;;;;6282293;22;20019;-83
2023/05/30 04:39:22;;;;;;;8.25;2.60;;;;;;;;;;6283299;22;20015;-82
2023/05/30 04:41:49;;;;;;;5.53;2.20;;;;;;;;;;6308239;22;20453;-83
2023/05/30 04:44:18;;;;;;;8.13;2.55;;;;;;;;;;6282593;22;20015;-82
2023/05/30 04:46:46;;;;;;;11.13;2.47;;;;;;;;;;6308002;22;20015;-82
2023/05/30 04:49:13;;;;;;;9.27;2.97;;;;;;;;;;6307900;22;20068;-83
2023/05/30 04:51:39;;;;;;;6.25;2.40;;;;;;;;;;6307887;22;20011;-83
2023/05/30 04:54:05;;;;;;;9.32;2.35;;;;;;;;;;6282572;22;20012;-83
2023/05/30 04:56:32;;;;;;;3.60;1.98;;;;;;;;;;6307882;22;20022;-82
2023/05/30 04:58:58;;;;;;;14.27;2.70;;;;;;;;;;6307769;22;20496;-82
2023/05/30 05:01:24;;;;;;;9.57;2.53;;;;;;;;;;6282016;22;20390;-82
2023/05/30 05:03:51;;;;;;;8.18;2.10;;;;;;;;;;6282246;22;20015;-82
2023/05/30 05:06:17;;;;;;;7.45;2.33;;;;;;;;;;6282960;22;20023;-82
2023/05/30 05:08:43;;;;;;;10.25;2.13;;;;;;;;;;6308058;22;20016;-82
2023/05/30 05:11:09;;;;;;;10.05;2.60;;;;;;;;;;6281811;22;20045;-82
2023/05/30 05:13:35;;;;;;;8.15;2.22;;;;;;;;;;6307676;22;20471;-82
2023/05/30 05:16:04;;;;;;;8.05;2.25;;;;;;;;;;6307017;22;20042;-81
2023/05/30 05:18:30;;;;;;;7.05;2.10;;;;;;;;;;6282876;22;20023;-82
2023/05/30 05:20:56;;;;;;;9.90;2.75;;;;;;;;;;6282732;22;20019;-82
2023/05/30 05:23:23;;;;;;;7.88;2.70;;;;;;;;;;6282815;22;20433;-82
2023/05/30 05:25:49;;;;;;;8.05;1.98;;;;;;;;;;6307592;22;20054;-82
2023/05/30 05:28:15;;;;;;;10.02;2.60;;;;;;;;;;6282796;22;20023;-82
2023/05/30 05:30:41;;;;;;;8.50;2.22;;;;;;;;;;6307272;22;20106;-82
2023/05/30 05:33:08;;;;;;;10.07;1.88;;;;;;;;;;6282776;22;20179;-82
2023/05/30 05:35:35;;;;;;;6.60;1.77;;;;;;;;;;6307432;22;20015;-82
2023/05/30 05:38:01;;;;;;;7.60;1.80;;;;;;;;;;6307459;22;20484;-82
2023/05/30 05:40:27;;;;;;;9.38;1.88;;;;;;;;;;6281535;22;20019;-83
2023/05/30 05:42:53;;;;;;;10.45;1.90;;;;;;;;;;6281918;22;20090;-83
2023/05/30 05:45:19;;;;;;;8.15;2.03;;;;;;;;;;6282707;22;20023;-82
2023/05/30 05:47:45;;;;;;;10.80;2.00;;;;;;;;;;6282553;22;20026;-83
2023/05/30 05:50:11;;;;;;;9.38;2.42;;;;;;;;;;6281656;22;20019;-83
2023/05/30 05:52:37;;;;;;;8.75;1.80;;;;;;;;;;6281399;22;20019;-83
2023/05/30 05:55:03;;;;;;;7.13;1.95;;;;;;;;;;6307557;22;20383;-82
2023/05/30 05:57:29;;;;;;;10.07;2.20;;;;;;;;;;6308171;22;20326;-82
2023/05/30 05:59:55;;;;;;;8.77;1.98;;;;;;;;;;6307121;22;20011;-82
2023/05/30 06:02:21;;;;;;;10.70;2.03;;;;;;;;;;6281495;22;20011;-82
2023/05/30 06:04:49;;;;;;;11.35;2.22;;;;;;;;;;6282316;22;20059;-82
2023/05/30 06:07:15;;;;;;;9.82;2.22;;;;;;;;;;6281349;22;20367;-82
2023/05/30 06:09:41;;;;;;;8.65;2.00;;;;;;;;;;6307478;22;20051;-82
2023/05/30 06:12:08;;;;;;;4.95;1.58;;;;;;;;;;6308008;22;20031;-82
2023/05/30 06:14:35;;;;;;;8.60;1.70;;;;;;;;;;6307067;22;20015;-82
2023/05/30 06:17:01;;;;;;;8.90;1.77;;;;;;;;;;6280859;22;20388;-82
2023/05/30 06:19:27;;;;;;;8.90;1.40;;;;;;;;;;6281252;22;20487;-83
2023/05/30 06:21:53;;;;;;;8.05;2.25;;;;;;;;;;6282339;22;20026;-80
2023/05/30 06:24:19;;;;;;;6.43;1.52;;;;;;;;;;6307035;22;20015;-80
2023/05/30 06:26:45;;;;;;;7.13;1.60;;;;;;;;;;6282153;22;20057;-79
2023/05/30 06:29:11;;;;;;;7.45;2.00;;;;;;;;;;6306933;22;20022;-80
2023/05/30 06:31:37;;;;;;;11.82;1.83;;;;;;;;;;6281440;22;20068;-79
2023/05/30 06:34:03;;;;;;;10.05;2.00;;;;;;;;;;6281411;22;20027;-80
2023/05/30 06:36:29;;;;;;;8.18;1.90;;;;;;;;;;6306862;22;20061;-80
2023/05/30 06:38:56;;;;;;;10.60;1.88;;;;;;;;;;6282036;22;20019;-80
2023/05/30 06:41:22;;;;;;;9.32;2.05;;;;;;;;;;6280500;22;20041;-80
2023/05/30 06:43:49;;;;;;;7.10;1.85;;;;;;;;;;6280870;22;20084;-80
2023/05/30 06:46:15;;;;;;;9.38;1.80;;;;;;;;;;6306702;22;20441;-80
2023/05/30 06:48:41;;;;;;;10.93;1.75;;;;;;;;;;6307049;22;20019;-81
2023/05/30 06:51:07;;;;;;;10.48;1.95;;;;;;;;;;6306703;22;20024;-83
2023/05/30 06:53:33;;;;;;;6.53;2.00;;;;;;;;;;6306657;22;20015;-81
2023/05/30 06:55:59;;;;;;;5.93;1.52;;;;;;;;;;6306759;22;20015;-82
2023/05/30 06:58:25;;;;;;;6.32;1.73;;;;;;;;;;6306686;22;20012;-82
2023/05/30 07:00:51;;;;;;;3.92;1.38;;;;;;;;;;6306566;22;20065;-82
2023/05/30 07:03:18;;;;;;;5.97;1.40;;;;;;;;;;6306653;22;20196;-82
2023/05/30 07:05:44;;;;;;;4.35;1.33;;;;;;;;;;6306621;22;20476;-83
2023/05/30 07:08:10;;;;;;;5.55;1.15;;;;;;;;;;6280790;22;20055;-82
2023/05/30 07:10:37;;;;;;;7.05;1.42;;;;;;;;;;6306429;22;20040;-83
2023/05/30 07:13:03;;;;;;;8.77;1.85;;;;;;;;;;6280429;22;20019;-82
2023/05/30 07:15:31;;;;;;;6.15;1.48;;;;;;;;;;6306616;22;20039;-81
2023/05/30 07:17:57;;;;;;;8.98;1.63;;;;;;;;;;6306638;22;20027;-82
2023/05/30 07:20:23;;;;;;;6.55;1.75;;;;;;;;;;6306460;22;20019;-82
2023/05/30 07:22:50;;;;;;;8.23;1.52;;;;;;;;;;6281073;22;20026;-82
2023/05/30 07:25:16;;;;;;;7.07;1.70;;;;;;;;;;6280850;22;20011;-82
2023/05/30 07:27:42;;;;;;;7.78;1.60;;;;;;;;;;6306588;22;20011;-82
2023/05/30 07:30:09;;;;;;;8.68;2.00;;;;;;;;;;6281722;22;20020;-82
2023/05/30 07:32:35;;;;;;;4.55;1.30;;;;;;;;;;6280928;22;20105;-82
2023/05/30 07:35:01;;;;;;;8.80;1.40;;;;;;;;;;6306387;22;20016;-82
2023/05/30 07:37:27;;;;;;;7.47;1.65;;;;;;;;;;6307454;22;20015;-82
2023/05/30 07:39:53;;;;;;;9.32;2.03;;;;;;;;;;6281677;22;20026;-82
2023/05/30 07:42:19;;;;;;;6.90;1.90;;;;;;;;;;6280632;22;20047;-83
2023/05/30 07:44:45;;;;;;;7.88;1.63;;;;;;;;;;6281621;22;20073;-82
2023/05/30 07:47:11;;;;;;;7.28;1.20;;;;;;;;;;6280983;22;20019;-82
2023/05/30 07:49:37;;;;;;;7.93;1.77;;;;;;;;;;6281268;22;20011;-82
2023/05/30 07:52:03;;;;;;;10.55;1.75;;;;;;;;;;6280591;22;20046;-82
2023/05/30 07:54:30;;;;;;;8.82;1.60;;;;;;;;;;6282445;22;20027;-82
2023/05/30 07:56:56;;;;;;;4.35;1.30;;;;;;;;;;6308778;22;20018;-82
2023/05/30 07:59:22;;;;;;;5.75;1.38;;;;;;;;;;6308694;22;20170;-82
2023/05/30 08:01:48;;;;;;;7.78;1.58;;;;;;;;;;6282740;22;20046;-82
2023/05/30 08:04:14;;;;;;;8.23;1.67;;;;;;;;;;6282581;22;20068;-82
2023/05/30 08:06:40;;;;;;;8.40;2.17;;;;;;;;;;6283757;22;20060;-82
2023/05/30 08:09:06;;;;;;;5.95;1.75;;;;;;;;;;6282685;22;20467;-82
2023/05/30 08:11:32;;;;;;;6.65;1.80;;;;;;;;;;6282837;22;20019;-82
2023/05/30 08:13:58;;;;;;;6.65;1.98;;;;;;;;;;6308292;22;20026;-82
2023/05/30 08:16:26;;;;;;;6.28;1.50;;;;;;;;;;6281864;22;20018;-82
2023/05/30 08:18:52;;;;;;;6.22;1.52;;;;;;;;;;6282275;22;20453;-82
2023/05/30 08:21:18;;;;;;;6.10;2.00;;;;;;;;;;6308486;22;20026;-82
2023/05/30 08:23:45;;;;;;;6.38;1.50;;;;;;;;;;6282557;22;20514;-82
2023/05/30 08:26:12;;;;;;;6.10;1.23;;;;;;;;;;6282763;22;20100;-82
2023/05/30 08:28:38;;;;;;;8.93;2.47;;;;;;;;;;6308120;22;20012;-82
2023/05/30 08:31:05;;;;;;;8.13;1.88;;;;;;;;;;6283259;22;20051;-82
2023/05/30 08:33:34;;;;;;;6.53;1.98;;;;;;;;;;6282972;22;20023;-82
2023/05/30 08:36:01;;;;;;;6.70;1.95;;;;;;;;;;6283215;22;20015;-83
2023/05/30 08:38:27;;;;;;;6.68;1.48;;;;;;;;;;6282439;22;20510;-82
2023/05/30 08:40:53;;;;;;;4.55;1.77;;;;;;;;;;6307659;22;20015;-83
2023/05/30 08:43:19;;;;;;;3.70;1.23;;;;;;;;;;6281869;22;20022;-82
2023/05/30 08:45:46;;;;;;;7.68;1.85;;;;;;;;;;6307925;22;20011;-82
2023/05/30 08:48:15;;;;;;;7.38;1.77;;;;;;;;;;6307841;22;20015;-82
2023/05/30 08:50:42;;;;;;;2.90;1.30;;;;;;;;;;6307853;22;20111;-82
2023/05/30 08:53:09;;;;;;;3.80;1.30;;;;;;;;;;6308538;22;20102;-82
2023/05/30 08:55:38;;;;;;;6.15;1.92;;;;;;;;;;6283003;22;20019;-83
2023/05/30 08:58:11;;;;;;;5.07;1.45;;;;;;;;;;6282204;22;20015;-83
2023/05/30 09:00:38;;;;;;;4.75;1.67;;;;;;;;;;6307627;22;20495;-82
2023/05/30 09:03:05;;;;;;;3.60;1.35;;;;;;;;;;6283023;22;20026;-82
2023/05/30 09:05:33;;;;;;;3.90;1.10;;;;;;;;;;6307257;22;20019;-82
2023/05/30 09:08:00;;;;;;;5.28;1.17;;;;;;;;;;6307757;22;20094;-82
2023/05/30 09:10:26;;;;;;;3.70;1.00;;;;;;;;;;6281879;22;20090;-83
2023/05/30 09:12:52;;;;;;;2.25;0.73;;;;;;;;;;6282779;22;20023;-83
2023/05/30 09:15:20;;;;;;;2.50;0.60;;;;;;;;;;6283039;22;20503;-82
2023/05/30 09:17:46;;;;;;;3.25;0.82;;;;;;;;;;6281279;22;20098;-82
2023/05/30 09:20:19;;;;;;;3.20;1.05;;;;;;;;;;6307743;22;20015;-82
2023/05/30 09:22:45;;;;;;;4.88;0.70;;;;;;;;;;6282915;22;20015;-83
2023/05/30 09:25:13;;;;;;;2.05;0.85;;;;;;;;;;6307561;22;20350;-82
2023/05/30 09:27:40;;;;;;;3.88;1.00;;;;;;;;;;6307543;22;20093;-83
2023/05/30 09:30:07;;;;;;;2.47;0.65;;;;;;;;;;6281727;22;20022;-83
2023/05/30 09:32:37;;;;;;;2.20;0.93;;;;;;;;;;6281746;22;20055;-82
2023/05/30 09:35:09;;;;;;;2.85;1.05;;;;;;;;;;6307475;22;20389;-83
2023/05/30 09:37:36;;;;;;;2.90;0.50;;;;;;;;;;6307473;22;20384;-83
2023/05/30 09:40:06;;;;;;;1.83;0.63;;;;;;;;;;6308315;22;20015;-82
2023/05/30 09:42:39;;;;;;;3.53;0.80;;;;;;;;;;6281773;22;20094;-82
2023/05/30 09:45:07;;;;;;;3.17;0.90;;;;;;;;;;6308324;22;20038;-82
2023/05/30 09:47:46;;;;;;;1.50;0.57;;;;;;;;;;6281784;22;20015;-82
2023/05/30 09:50:13;;;;;;;0.90;0.70;;;;;;;;;;6282558;22;20428;-83
2023/05/30 09:52:43;;;;;;;3.38;0.52;;;;;;;;;;6307125;22;20380;-82
2023/05/30 09:55:10;;;;;;;2.00;0.57;;;;;;;;;;6307689;22;20463;-82
2023/05/30 09:57:37;;;;;;;2.25;0.60;;;;;;;;;;6281485;22;20019;-82
2023/05/30 10:00:10;;;;;;;1.40;0.30;;;;;;;;;;6282407;22;20018;-82
2023/05/30 10:02:40;;;;;;;2.20;0.50;;;;;;;;;;6307611;22;20018;-82
2023/05/30 10:05:08;;;;;;;1.88;0.73;;;;;;;;;;6307188;22;20019;-83
2023/05/30 10:07:34;;;;;;;1.42;0.57;;;;;;;;;;6281433;22;20023;-82
2023/05/30 10:10:01;;;;;;;1.58;0.80;;;;;;;;;;6281381;22;20022;-82
2023/05/30 10:12:27;;;;;;;1.85;0.77;;;;;;;;;;6281178;22;20015;-82
2023/05/30 10:14:53;;;;;;;1.00;0.50;;;;;;;;;;6281449;22;20012;-82
2023/05/30 10:17:21;;;;;;;1.35;0.50;;;;;;;;;;6306667;22;20457;-83
2023/05/30 10:19:50;;;;;;;2.33;0.88;;;;;;;;;;6307260;22;20333;-83
2023/05/30 10:22:17;;;;;;;1.42;0.68;;;;;;;;;;6307023;22;20568;-85
2023/05/30 10:24:44;;;;;;;1.73;0.65;;;;;;;;;;6306947;22;20034;-82
2023/05/30 10:27:15;;;;;;;1.40;0.32;;;;;;;;;;6281505;22;20093;-83
2023/05/30 10:29:46;;;;;;;1.02;0.50;;;;;;;;;;6308092;22;20503;-83
2023/05/30 10:32:15;;;;;;;1.83;0.52;;;;;;;;;;6307426;22;20065;-82
2023/05/30 10:34:48;;;;;;;1.00;0.43;;;;;;;;;;6307256;22;20046;-83
2023/05/30 10:37:14;;;;;;;1.13;0.40;;;;;;;;;;6307323;22;20022;-83
2023/05/30 10:39:52;;;;;;;2.70;0.43;;;;;;;;;;6306742;22;20455;-83
2023/05/30 10:42:26;;;;;;;0.75;0.40;;;;;;;;;;6307778;22;20015;-83
2023/05/30 10:44:59;;;;;;;2.05;0.70;;;;;;;;;;6307967;22;20019;-83
2023/05/30 10:47:41;;;;;;;1.58;0.40;;;;;;;;;;6307931;22;20011;-83
2023/05/30 10:50:24;;;;;;;1.38;0.65;;;;;;;;;;6307862;22;20054;-83
2023/05/30 10:52:53;;;;;;;1.55;0.50;;;;;;;;;;6281380;22;20027;-82
2023/05/30 10:55:19;;;;;;;1.95;0.55;;;;;;;;;;6280971;22;20160;-82
2023/05/30 10:57:45;;;;;;;1.17;0.50;;;;;;;;;;6280973;22;20145;-83
2023/05/30 11:00:12;;;;;;;2.33;0.93;;;;;;;;;;6281360;22;20361;-83
2023/05/30 11:02:39;;;;;;;1.52;0.40;;;;;;;;;;6280819;22;20022;-83
2023/05/30 11:05:10;;;;;;;2.70;0.50;;;;;;;;;;6306603;22;20050;-82
2023/05/30 11:07:37;;;;;;;0.77;0.50;;;;;;;;;;6281300;22;20015;-82
2023/05/30 11:10:14;;;;;;;1.50;0.40;;;;;;;;;;6281225;22;20015;-83
2023/05/30 11:12:49;;;;;;;0.95;0.40;;;;;;;;;;6282216;22;20371;-82
2023/05/30 11:15:16;;;;;;;0.98;0.47;;;;;;;;;;6281276;22;20023;-82
2023/05/30 11:17:42;;;;;;;1.58;0.50;;;;;;;;;;6280813;22;20019;-83
2023/05/30 11:20:12;;;;;;;2.08;0.70;;;;;;;;;;6281001;22;20051;-83
2023/05/30 11:22:38;;;;;;;1.15;0.60;;;;;;;;;;6281703;22;20049;-83
2023/05/30 11:25:25;;;;;;;1.20;0.77;;;;;;;;;;6281116;22;20015;-83
2023/05/30 11:28:06;;;;;;;1.80;0.70;;;;;;;;;;6282985;22;20015;-83
2023/05/30 11:30:39;;;;;;;1.90;0.77;;;;;;;;;;6284583;22;20068;-83
2023/05/30 11:33:09;;;;;;;2.70;0.70;;;;;;;;;;6310064;22;20015;-83
2023/05/30 11:35:36;;;;;;;2.35;0.52;;;;;;;;;;6310429;22;20330;-82
2023/05/30 11:38:02;;;;;;;1.02;0.50;;;;;;;;;;6310023;22;20015;-82
2023/05/30 11:40:31;;;;;;;2.35;0.63;;;;;;;;;;6284426;22;20029;-82
2023/05/30 11:43:01;;;;;;;1.88;0.82;;;;;;;;;;6310838;22;20017;-82
2023/05/30 11:45:28;;;;;;;2.20;0.40;;;;;;;;;;6309938;22;20015;-83
2023/05/30 11:47:55;;;;;;;0.70;0.52;;;;;;;;;;6310025;22;20065;-83
2023/05/30 11:50:21;;;;;;;0.82;0.50;;;;;;;;;;6309933;22;20081;-82
2023/05/30 11:52:47;;;;;;;1.67;0.50;;;;;;;;;;6285123;22;20016;-82
2023/05/30 11:55:13;;;;;;;1.45;0.60;;;;;;;;;;6310193;22;20336;-82
2023/05/30 11:57:39;;;;;;;0.80;0.40;;;;;;;;;;6284210;22;20011;-83
2023/05/30 12:00:08;;;;;;;0.95;0.40;;;;;;;;;;6309370;22;20053;-82
2023/05/30 12:02:34;;;;;;;0.50;0.40;;;;;;;;;;6284411;22;20371;-83
2023/05/30 12:05:01;;;;;;;0.45;0.30;;;;;;;;;;6310244;22;20064;-83
2023/05/30 12:07:28;;;;;;;0.40;0.30;;;;;;;;;;6310899;22;20015;-83
2023/05/30 12:09:54;;;;;;;0.65;0.20;;;;;;;;;;6309891;22;20093;-83
2023/05/30 12:12:20;;;;;;;0.32;0.22;;;;;;;;;;6309766;22;20145;-82
2023/05/30 12:14:53;;;;;;;0.55;0.30;;;;;;;;;;6310152;22;20018;-82
2023/05/30 12:17:22;;;;;;;0.90;0.22;;;;;;;;;;6284173;22;20019;-82
2023/05/30 12:19:59;;;;;;;0.80;0.30;;;;;;;;;;6309666;22;20022;-82
2023/05/30 12:22:30;;;;;;;0.60;0.30;;;;;;;;;;6283978;22;20528;-82
2023/05/30 12:24:57;;;;;;;0.50;0.20;;;;;;;;;;6285091;22;20376;-82
2023/05/30 12:27:24;;;;;;;0.63;0.30;;;;;;;;;;6309793;22;20018;-82
2023/05/30 12:29:50;;;;;;;0.63;0.30;;;;;;;;;;6283983;22;20094;-82
2023/05/30 12:32:26;;;;;;;0.50;0.20;;;;;;;;;;6284005;22;20040;-82
2023/05/30 12:34:57;;;;;;;1.25;0.25;;;;;;;;;;6283597;22;20019;-83
2023/05/30 12:37:23;;;;;;;0.50;0.20;;;;;;;;;;6310769;22;20012;-82
2023/05/30 12:39:52;;;;;;;0.50;0.30;;;;;;;;;;6308020;22;20011;-82
2023/05/30 12:42:22;;;;;;;0.65;0.20;;;;;;;;;;6308007;22;20498;-82
2023/05/30 12:44:54;;;;;;;0.75;0.20;;;;;;;;;;6308046;22;20030;-82
2023/05/30 12:47:21;;;;;;;0.40;0.20;;;;;;;;;;6283209;22;20054;-82
2023/05/30 12:49:47;;;;;;;2.22;0.30;;;;;;;;;;6309054;22;20015;-82
2023/05/30 12:52:14;;;;;;;3.85;0.50;;;;;;;;;;6282321;22;20100;-82
2023/05/30 12:54:41;;;;;;;0.82;0.30;;;;;;;;;;6307897;22;20094;-82
2023/05/30 12:57:08;;;;;;;0.57;0.20;;;;;;;;;;6282190;22;20441;-82
2023/05/30 12:59:34;;;;;;;0.60;0.30;;;;;;;;;;6308813;22;20016;-82
2023/05/30 13:02:00;;;;;;;1.35;0.30;;;;;;;;;;6308870;22;20016;-82
2023/05/30 13:04:26;;;;;;;0.45;0.30;;;;;;;;;;6307853;22;20077;-82
2023/05/30 13:06:52;;;;;;;1.33;0.32;;;;;;;;;;6308828;22;20422;-82
2023/05/30 13:09:19;;;;;;;0.75;0.40;;;;;;;;;;6307793;22;20024;-82
2023/05/30 13:11:46;;;;;;;0.80;0.30;;;;;;;;;;6307690;22;20019;-82
2023/05/30 13:14:12;;;;;;;0.70;0.30;;;;;;;;;;6281983;22;20015;-82
2023/05/30 13:16:38;;;;;;;0.45;0.30;;;;;;;;;;6281785;22;20023;-82
2023/05/30 13:19:05;;;;;;;0.98;0.30;;;;;;;;;;6308001;22;20460;-82
2023/05/30 13:21:31;;;;;;;2.03;0.30;;;;;;;;;;6307671;22;20021;-82
2023/05/30 13:23:57;;;;;;;1.65;0.40;;;;;;;;;;6308672;22;20042;-82
2023/05/30 13:26:23;;;;;;;0.47;0.28;;;;;;;;;;6282155;22;20094;-82
2023/05/30 13:28:49;;;;;;;1.67;0.40;;;;;;;;;;6281949;22;20015;-82
2023/05/30 13:31:15;;;;;;;0.63;0.40;;;;;;;;;;6281824;22;20445;-82
2023/05/30 13:33:41;;;;;;;1.15;0.40;;;;;;;;;;6281788;22;20030;-82
2023/05/30 13:36:07;;;;;;;1.52;0.30;;;;;;;;;;6282085;22;20011;-82
2023/05/30 13:38:34;;;;;;;0.88;0.30;;;;;;;;;;6281585;22;20389;-82
2023/05/30 13:41:00;;;;;;;0.73;0.30;;;;;;;;;;6281630;22;20018;-83
2023/05/30 13:43:26;;;;;;;0.50;0.28;;;;;;;;;;6282018;22;20093;-82
2023/05/30 13:45:52;;;;;;;0.52;0.25;;;;;;;;;;6281706;22;20077;-82
2023/05/30 13:48:20;;;;;;;2.28;0.35;;;;;;;;;;6307489;22;20054;-82
2023/05/30 13:50:50;;;;;;;1.02;0.30;;;;;;;;;;6281442;22;20065;-82
2023/05/30 13:53:17;;;;;;;1.17;0.30;;;;;;;;;;6308503;22;20321;-82
2023/05/30 13:55:43;;;;;;;0.57;0.22;;;;;;;;;;6282572;22;20015;-83
2023/05/30 13:58:10;;;;;;;0.60;0.40;;;;;;;;;;6308388;22;20019;-83
2023/05/30 14:00:36;;;;;;;1.60;0.30;;;;;;;;;;6281363;22;20019;-83
2023/05/30 14:03:03;;;;;;;0.45;0.30;;;;;;;;;;6308345;22;20174;-83
2023/05/30 14:05:29;;;;;;;0.73;0.30;;;;;;;;;;6281511;22;20019;-83
2023/05/30 14:07:55;;;;;;;3.72;0.30;;;;;;;;;;6307579;22;20018;-83
2023/05/30 14:10:21;;;;;;;0.35;0.25;;;;;;;;;;6282105;22;20433;-84
2023/05/30 14:12:49;;;;;;;0.65;0.30;;;;;;;;;;6281561;22;20015;-83
2023/05/30 14:15:15;;;;;;;2.42;0.20;;;;;;;;;;6281492;22;20015;-83
2023/05/30 14:17:42;;;;;;;0.80;0.35;;;;;;;;;;6280710;22;20073;-83
2023/05/30 14:20:10;;;;;;;2.38;0.30;;;;;;;;;;6307035;22;20023;-83
2023/05/30 14:22:36;;;;;;;0.60;0.30;;;;;;;;;;6281295;22;20463;-83
2023/05/30 14:25:03;;;;;;;0.60;0.30;;;;;;;;;;6281609;22;20341;-84
2023/05/30 14:27:30;;;;;;;0.60;0.30;;;;;;;;;;6282586;22;20376;-82
2023/05/30 14:29:56;;;;;;;2.90;0.30;;;;;;;;;;6307323;22;20023;-82
2023/05/30 14:32:22;;;;;;;1.85;0.40;;;;;;;;;;6281190;22;20019;-82
2023/05/30 14:34:48;;;;;;;1.30;0.30;;;;;;;;;;6281269;22;20330;-82
2023/05/30 14:37:15;;;;;;;2.42;0.30;;;;;;;;;;6307338;22;20019;-82
2023/05/30 14:39:41;;;;;;;3.13;0.30;;;;;;;;;;6306842;22;20026;-82
2023/05/30 14:42:07;;;;;;;0.60;0.40;;;;;;;;;;6281021;22;20015;-82